Du har inga inställningar för hoppväder.nu

Hoppväder.nu

Senast uppdaterat 02:15

UTC-tid

2018-01-17 kl. 01:15


Sol och måne

Solen går upp 9:03 och går ner 14:29 (beräknade cirkatider)
Nästa fullmåne blir om 14 dagar (2018-01-31)

METAR

ESNS (Skellefteå)
(25 minuter sedan)
ESNS 170050Z AUTO 14012KT 9999 OVC020/// M05/M09 Q1000=



ESNU (Umeå)
(25 minuter sedan)
ESNU 170050Z 13016KT 9999 OVC021 M06/M09 Q0999 RWY 14 ICE 26-50 PCT FCT 0.35=



ESPA (Luleå)
(25 minuter sedan)
ESPA 170050Z AUTO 14014KT 9999 OVC021/// M05/M08 Q1002=









TAF

ESNS (Skellefteå)
(135 minuter sedan)
ESNS 162300Z NIL=



ESNU (Umeå)
(105 minuter sedan)
ESNU 162330Z 1700/1709 14015KT 9999 OVC020=



ESPA (Luleå)
(285 minuter sedan)
ESPA 162030Z 1621/1624 16015KT 9999 BKN020=





Kodnycklar till TAF och METAR






LHP

(Skellefteå är område A1b i Norra delen)

Prognos är inte uppdaterad
ÖVERSIKTLIG PROGNOS FÖR OMRÅDE C UTFÄRDAD 161550
GÄLLANDE DEN 17 JANUARI 2018 MELLAN 05 OCH 17 UTC


Väderöversikt
Ett utbrett snöfallsområde berör Norrland under dagen FJÄLLEN: I hela fjällkedjan förekommer snöfall, snödrev och en frisk till hård ostlig vind, Lapplandsfjällen något svagare vind
NORRA DELEN


Sikt/Väder/Moln
05-13UTC: I hela området: Sikt 1.5km - 3km i snöfall, lokalt >8km. Molnbas 500ft - 1000ft, lokalt >2000ft.
13-17UTC: I hela området: Sikt <1.5km i snöfall, lokalt 3km - 5km. Molnbas <500ft, lokalt 1500ft - 2000ft.

CB/TCU Moln
05-17UTC: I hela området: Väntas inte förekomma under perioden

Vind vid marken
05-09UTC: Område A3a: SO/3-10 knop, byar upp till 19 knop.
Område A2c: SO/5-15 knop, byar upp till 25 knop.
Område A3c: SO/4-14 knop, byar upp till 25 knop.
Område A1a: SO/6-20 knop, byar upp till 27 knop.
Område A4b: SO/5-14 knop, byar upp till 25 knop.
Område A1c: SO/9-21 knop, byar upp till 28 knop.
Område A2a: O-SO/6-14 knop, byar upp till 21 knop.
Område A4c: SO/6-13 knop, byar upp till 24 knop.
Område A1b: SO/6-21 knop, byar upp till 28 knop.
Område A1d: SO/14-23 knop, byar upp till 29 knop.
Område A3d: O-SO/9-15 knop, byar upp till 25 knop.
Område A4a: SO/6-9 knop, byar upp till 18 knop.
Område A2b: SO/4-11 knop, byar upp till 22 knop.
Område A3b: SO/6-13 knop, byar upp till 21 knop.

09-13UTC: Område A1b: SO/4-19 knop, byar upp till 25 knop.
Område A2b: O-SO/4-9 knop, byar upp till 18 knop.
Område A1d: SO/10-20 knop, byar upp till 29 knop.
Område A3c: O-SO/5-12 knop, byar upp till 21 knop.
Område A2c: O-SO/3-11 knop, byar upp till 18 knop.
Område A3a: SO/3-9 knop, byar upp till 18 knop.
Område A4b: O-SO/5-10 knop, byar upp till 18 knop.
Område A1c: SO/5-19 knop, byar upp till 26 knop.
Område A3b: O-SO/5-12 knop, byar upp till 20 knop.
Område A4a: O-SO/3-7 knop, byar upp till 15 knop.
Område A2a: O-SO/5-13 knop, byar upp till 19 knop.
Område A3d: O-SO/6-14 knop, byar upp till 24 knop.
Område A1a: SO/5-20 knop, byar upp till 28 knop.
Område A4c: O-SO/6-11 knop, byar upp till 20 knop.

13-17UTC: Område A1d: O-SO/11-22 knop, byar upp till 28 knop.
Område A3a: O/3-10 knop, byar upp till 16 knop.
Område A3b: O/4-13 knop, byar upp till 20 knop.
Område A4a: O/4-6 knop.
Område A1c: O-SO/6-22 knop, byar upp till 28 knop.
Område A1b: O-SO/4-21 knop, byar upp till 28 knop.
Område A2a: O/5-14 knop, byar upp till 22 knop.
Område A3d: O/3-11 knop, byar upp till 17 knop.
Område A1a: O-SO/5-22 knop, byar upp till 28 knop.
Område A2c: O-SO/4-10 knop, byar upp till 18 knop.
Område A3c: O/5-11 knop, byar upp till 19 knop.
Område A2b,A4b: O-SO/4-9 knop, byar upp till 17 knop.
Område A4c: O/4-11 knop, byar upp till 20 knop.





Spotting

Hur fungerar spotthjälpen och Vindkartan?

Markvind är ca 0 m/s.



Vindkartan

Senast uppdaterad 02:15



All data kommer från LFV.se